Главная страница
METAR-TAF:

METAR-TAF

Аэропорты :

Чанги

Сингапур, Сингапур

широта: 01-22N, долгота: 103-59E, высота над уровнем моря: 5 м

Текущие метеонаблюдения

Эта сводка был подготовлена 24 минут назад, в 10:00 UTC
Ветер 10 Узел от южный
Температура 30°C
Влажность 66%
Давление 1006 hPa
Видимость 10 км и более
небольшая облачность на высоте 2000 фута
Рассеянная облачность на высоте 30000 фута

METAR: WSSS 161000Z 17010KT 9999 FEW020 BKN300 30/23 Q1006 NOSIG

Время: 18:24 (10:24 UTC)

Прогноз

Эта сводка был подготовлена 2 часа и 24 минут назад, в 08:00 UTC
Прогноз действительный с 16-го 08 UTC до 17-го 12 UTC
Ветер 9 Узел от южный
Видимость 10 км и более
небольшая облачность на высоте 1800 фута, Кучево-дождевые.
Отдельные облака на высоте 2000 фута

TAF: WSSS 160800Z 1608/1712 18009KT 9999 FEW018CB SCT020

Метеонаблюдения и прогнозы для более 4000 аэропортов (сводки METAR и TAF).

Имеющиеся станции представлены на карте желтыми и красными точками.

Чтобы увидеть название станции, наведите на нее мышь.

Затем щелкните, чтобы увидеть метеонаблюдения и метеопрогнозы.

Управление картой: чтобы увеличить масштаб, щелкните зеленые кнопки с черным крестиком; чтобы уменьшить масштаб, щелкните зеленую кнопку с тире; для просмотра соседних карт щелкайте зеленые стрелки.


METAR-TAF: